Time;durP1;ratioP1;P1;durP2;ratioP2;P2;SDS_P1;SDS_P2;PMS_P1;PMS_P2;Temp;Humidity;BMP_temperature;BMP_pressure;BME280_temperature;BME280_humidity;BME280_pressure;Samples;Min_cycle;Max_cycle;Signal;HPM_P1;HPM_P2
2023/05/22 00:01:05;;;;;;;9.07;5.90;;;20.40;99.90;;;;;;5056154;28;20256;-61
2023/05/22 00:03:32;;;;;;;7.37;5.90;;;20.30;99.90;;;;;;5056639;28;20169;-61
2023/05/22 00:05:59;;;;;;;7.43;6.17;;;20.30;99.90;;;;;;5057758;28;20196;-61
2023/05/22 00:08:25;;;;;;;6.63;5.93;;;20.30;99.90;;;;;;5056969;28;20182;-61
2023/05/22 00:10:52;;;;;;;8.37;5.87;;;20.30;99.90;;;;;;5057050;28;20187;-62
2023/05/22 00:13:17;;;;;;;6.90;5.77;;;20.30;99.90;;;;;;5056265;28;20237;-62
2023/05/22 00:15:43;;;;;;;6.50;5.90;;;20.30;99.90;;;;;;5056878;28;20196;-62
2023/05/22 00:18:08;;;;;;;8.90;6.00;;;20.30;99.90;;;;;;5056353;28;20248;-61
2023/05/22 00:20:37;;;;;;;8.03;6.30;;;20.20;99.90;;;;;;5055948;28;20219;-61
2023/05/22 00:23:04;;;;;;;6.70;6.00;;;20.20;99.90;;;;;;5055691;28;20177;-62
2023/05/22 00:25:29;;;;;;;8.13;5.67;;;20.20;99.90;;;;;;5055495;28;20272;-61
2023/05/22 00:27:55;;;;;;;7.37;6.30;;;20.20;99.90;;;;;;5054987;28;20481;-62
2023/05/22 00:30:27;;;;;;;8.10;6.23;;;20.20;99.90;;;;;;5054801;28;20192;-61
2023/05/22 00:32:52;;;;;;;7.50;6.30;;;20.10;99.90;;;;;;5054148;28;20200;-61
2023/05/22 00:35:18;;;;;;;9.03;5.90;;;20.10;99.90;;;;;;5054882;28;20196;-61
2023/05/22 00:37:44;;;;;;;6.20;5.60;;;20.10;99.90;;;;;;5054568;28;20272;-61
2023/05/22 00:40:11;;;;;;;7.90;6.60;;;20.10;99.90;;;;;;5055789;28;20617;-61
2023/05/22 00:42:37;;;;;;;9.10;6.57;;;20.10;99.90;;;;;;5056049;28;20271;-62
2023/05/22 00:45:05;;;;;;;6.63;5.83;;;20.00;99.90;;;;;;5056700;28;20188;-60
2023/05/22 00:47:31;;;;;;;7.77;5.50;;;20.00;99.90;;;;;;5056518;28;20540;-61
2023/05/22 00:49:57;;;;;;;6.23;5.73;;;20.00;99.90;;;;;;5056517;28;20641;-60
2023/05/22 00:52:24;;;;;;;6.60;6.00;;;20.00;99.90;;;;;;5057141;28;20165;-61
2023/05/22 00:54:52;;;;;;;7.90;5.93;;;19.90;99.90;;;;;;5056468;28;20165;-61
2023/05/22 00:57:19;;;;;;;6.57;5.40;;;19.90;99.90;;;;;;5055344;28;20251;-61
2023/05/22 00:59:45;;;;;;;6.10;5.53;;;19.90;99.90;;;;;;5055840;28;20165;-62
2023/05/22 01:02:12;;;;;;;9.20;5.63;;;19.80;99.90;;;;;;5056096;28;20173;-61
2023/05/22 01:04:38;;;;;;;5.47;5.07;;;19.80;99.90;;;;;;5055452;28;20196;-61
2023/05/22 01:07:04;;;;;;;6.87;5.70;;;19.80;99.90;;;;;;5056033;28;20468;-61
2023/05/22 01:09:30;;;;;;;6.20;5.60;;;19.80;99.90;;;;;;5056296;28;20258;-61
2023/05/22 01:12:17;;;;;;;6.73;5.80;;;19.80;99.90;;;;;;5056487;28;20238;-60
2023/05/22 01:15:03;;;;;;;8.80;6.10;;;19.80;99.90;;;;;;5056956;28;20209;-61
2023/05/22 01:17:45;;;;;;;6.63;5.93;;;19.70;99.90;;;;;;5056598;28;20256;-61
2023/05/22 01:20:36;;;;;;;7.87;5.80;;;19.70;99.90;;;;;;5055473;28;20262;-61
2023/05/22 01:23:25;;;;;;;6.83;6.10;;;19.70;99.90;;;;;;5056070;28;20177;-61
2023/05/22 01:26:02;;;;;;;7.77;5.70;;;19.70;99.90;;;;;;5056989;28;20248;-62
2023/05/22 01:28:57;;;;;;;7.63;5.73;;;19.60;99.90;;;;;;5054853;28;20638;-62
2023/05/22 01:31:28;;;;;;;7.73;5.77;;;19.70;99.90;;;;;;5055825;28;20212;-62
2023/05/22 01:33:57;;;;;;;6.77;5.57;;;19.60;99.90;;;;;;5054682;28;20220;-62
2023/05/22 01:36:27;;;;;;;6.17;5.57;;;19.60;99.90;;;;;;5054095;28;20170;-61
2023/05/22 01:38:54;;;;;;;8.10;5.53;;;19.60;99.90;;;;;;5055034;28;20181;-62
2023/05/22 01:41:20;;;;;;;9.43;5.73;;;19.60;99.90;;;;;;5055350;28;20230;-62
2023/05/22 01:43:46;;;;;;;11.57;6.00;;;19.60;99.90;;;;;;5055682;28;20668;-62
2023/05/22 01:46:12;;;;;;;6.53;5.80;;;19.50;99.90;;;;;;5056280;28;20268;-62
2023/05/22 01:48:37;;;;;;;7.00;5.17;;;19.50;99.90;;;;;;5055914;28;20246;-62
2023/05/22 01:51:35;;;;;;;7.27;5.87;;;19.50;99.90;;;;;;5055663;28;20565;-62
2023/05/22 01:54:17;;;;;;;6.33;5.73;;;19.40;99.90;;;;;;5034832;28;20225;-61
2023/05/22 01:56:53;;;;;;;7.00;6.10;;;19.40;99.90;;;;;;5053553;28;20276;-61
2023/05/22 01:59:29;;;;;;;5.90;5.30;;;19.40;99.90;;;;;;5054840;28;20242;-61
2023/05/22 02:01:58;;;;;;;7.33;5.17;;;19.40;99.90;;;;;;5053906;28;20231;-61
2023/05/22 02:04:25;;;;;;;6.63;5.90;;;19.40;99.90;;;;;;5053194;28;20201;-62
2023/05/22 02:06:52;;;;;;;11.17;6.10;;;19.30;99.90;;;;;;5053620;28;20178;-58
2023/05/22 02:09:20;;;;;;;5.63;5.13;;;19.30;99.90;;;;;;5053873;28;20165;-61
2023/05/22 02:11:47;;;;;;;6.47;5.70;;;19.30;99.90;;;;;;5053472;28;20231;-61
2023/05/22 02:14:16;;;;;;;8.73;5.87;;;19.30;99.90;;;;;;5053137;28;20546;-61
2023/05/22 02:16:46;;;;;;;6.30;5.70;;;19.20;99.90;;;;;;5049556;28;20252;-61
2023/05/22 02:19:12;;;;;;;6.57;5.90;;;19.20;99.90;;;;;;5047704;28;20244;-62
2023/05/22 02:21:37;;;;;;;6.07;5.47;;;19.20;99.90;;;;;;5052045;28;20260;-62
2023/05/22 02:24:03;;;;;;;6.23;5.63;;;19.10;99.90;;;;;;5059197;28;20248;-63
2023/05/22 02:26:29;;;;;;;7.33;5.50;;;19.10;99.90;;;;;;5057958;28;20184;-62
2023/05/22 02:28:54;;;;;;;6.87;5.93;;;19.10;99.90;;;;;;5058341;28;20264;-62
2023/05/22 02:31:20;;;;;;;8.53;5.30;;;19.10;99.90;;;;;;5058496;28;20227;-62
2023/05/22 02:33:45;;;;;;;6.07;5.47;;;19.10;99.90;;;;;;5059840;28;20515;-62
2023/05/22 02:36:13;;;;;;;7.97;6.03;;;19.00;99.90;;;;;;5059348;28;20169;-62
2023/05/22 02:38:39;;;;;;;8.80;5.63;;;19.00;99.90;;;;;;5060482;28;20455;-62
2023/05/22 02:41:05;;;;;;;8.17;5.77;;;19.00;99.90;;;;;;5059637;28;20545;-62
2023/05/22 02:43:31;;;;;;;8.20;5.17;;;19.00;99.90;;;;;;5058490;28;20169;-62
2023/05/22 02:45:56;;;;;;;9.33;5.97;;;19.00;99.90;;;;;;5058205;28;20219;-61
2023/05/22 02:48:22;;;;;;;8.40;5.93;;;19.00;99.90;;;;;;5058503;28;20169;-63
2023/05/22 02:50:48;;;;;;;6.10;5.50;;;19.00;99.90;;;;;;5057806;28;20185;-62
2023/05/22 02:53:14;;;;;;;6.17;5.53;;;18.90;99.90;;;;;;5057389;28;20205;-61
2023/05/22 02:55:40;;;;;;;6.63;5.80;;;19.00;99.90;;;;;;5058717;28;20534;-63
2023/05/22 02:58:10;;;;;;;5.73;5.13;;;18.90;99.90;;;;;;5058066;28;20545;-63
2023/05/22 03:00:36;;;;;;;5.90;5.30;;;18.90;99.90;;;;;;5057335;28;20173;-62
2023/05/22 03:03:02;;;;;;;6.93;5.37;;;18.90;99.90;;;;;;5059099;28;20176;-63
2023/05/22 03:05:34;;;;;;;8.17;5.93;;;18.90;99.90;;;;;;5058987;28;20264;-62
2023/05/22 03:08:00;;;;;;;6.20;5.53;;;18.90;99.90;;;;;;5059203;28;20185;-63
2023/05/22 03:10:26;;;;;;;7.40;5.83;;;18.80;99.90;;;;;;5058931;28;20180;-62
2023/05/22 03:12:51;;;;;;;6.70;5.20;;;18.90;99.90;;;;;;5057995;28;20201;-62
2023/05/22 03:15:17;;;;;;;6.20;5.20;;;18.80;99.90;;;;;;5057937;28;20162;-62
2023/05/22 03:17:43;;;;;;;9.57;5.87;;;18.80;99.90;;;;;;5057257;28;20180;-62
2023/05/22 03:20:09;;;;;;;8.80;5.67;;;18.80;99.90;;;;;;5057610;28;20227;-62
2023/05/22 03:22:35;;;;;;;8.63;5.67;;;18.80;99.90;;;;;;5055332;28;20177;-62
2023/05/22 03:25:00;;;;;;;7.07;5.20;;;18.80;99.90;;;;;;5057699;28;20180;-61
2023/05/22 03:27:26;;;;;;;6.40;5.33;;;18.70;99.90;;;;;;5058245;28;20669;-61
2023/05/22 03:29:51;;;;;;;8.20;5.90;;;18.70;99.90;;;;;;5058035;28;20574;-61
2023/05/22 03:32:18;;;;;;;5.43;4.93;;;18.70;99.90;;;;;;5058302;28;20169;-62
2023/05/22 03:34:44;;;;;;;5.60;5.07;;;18.80;99.90;;;;;;5059528;28;20193;-62
2023/05/22 03:37:10;;;;;;;8.50;5.70;;;18.80;99.90;;;;;;5058412;28;20180;-62
2023/05/22 03:39:38;;;;;;;8.67;5.00;;;18.80;99.90;;;;;;5057960;28;20161;-62
2023/05/22 03:42:04;;;;;;;7.87;5.60;;;18.70;99.90;;;;;;5057603;28;20254;-63
2023/05/22 03:44:30;;;;;;;5.47;4.97;;;18.80;99.90;;;;;;5058119;28;20176;-63
2023/05/22 03:46:56;;;;;;;6.43;4.93;;;18.70;99.90;;;;;;5057061;28;20169;-63
2023/05/22 03:49:21;;;;;;;6.57;5.30;;;18.80;99.90;;;;;;5057617;28;20209;-63
2023/05/22 03:51:47;;;;;;;5.83;4.97;;;18.70;99.90;;;;;;5056675;28;20196;-63
2023/05/22 03:54:13;;;;;;;6.30;5.27;;;18.70;99.90;;;;;;5056424;28;20259;-62
2023/05/22 03:56:54;;;;;;;5.90;5.27;;;18.70;99.90;;;;;;5057517;28;20176;-61
2023/05/22 03:59:20;;;;;;;6.07;5.47;;;18.70;99.90;;;;;;5055826;28;20223;-61
2023/05/22 04:01:47;;;;;;;11.40;5.77;;;18.70;99.90;;;;;;5054009;28;20558;-61
2023/05/22 04:04:13;;;;;;;7.20;5.33;;;18.70;99.90;;;;;;5054658;28;20581;-60
2023/05/22 04:06:41;;;;;;;8.13;4.90;;;18.70;99.90;;;;;;5054580;28;20176;-60
2023/05/22 04:09:11;;;;;;;6.87;5.10;;;18.70;99.90;;;;;;5055187;28;20279;-60
2023/05/22 04:11:41;;;;;;;6.37;4.50;;;18.70;99.90;;;;;;5055003;28;20551;-60
2023/05/22 04:14:07;;;;;;;6.87;5.23;;;18.70;99.90;;;;;;5054922;28;20193;-60
2023/05/22 04:16:33;;;;;;;6.80;5.40;;;18.70;99.90;;;;;;5055186;28;20201;-61
2023/05/22 04:19:01;;;;;;;6.50;5.17;;;18.70;99.90;;;;;;5054356;28;20253;-61
2023/05/22 04:21:27;;;;;;;6.37;5.10;;;18.70;99.90;;;;;;5054827;28;20179;-60
2023/05/22 04:23:53;;;;;;;5.23;4.73;;;18.70;99.90;;;;;;5054837;28;20276;-60
2023/05/22 04:26:19;;;;;;;6.13;4.57;;;18.70;99.90;;;;;;5055109;28;20195;-60
2023/05/22 04:28:45;;;;;;;5.13;4.63;;;18.70;99.90;;;;;;5055272;28;20174;-61
2023/05/22 04:31:12;;;;;;;7.47;5.03;;;18.70;99.90;;;;;;5055124;28;20247;-60
2023/05/22 04:33:38;;;;;;;8.33;4.73;;;18.70;99.90;;;;;;5055333;28;20201;-61
2023/05/22 04:36:05;;;;;;;7.63;4.90;;;18.80;99.90;;;;;;5055220;28;20165;-62
2023/05/22 04:38:35;;;;;;;7.97;4.90;;;18.80;99.90;;;;;;5055858;28;20181;-60
2023/05/22 04:41:01;;;;;;;8.07;5.37;;;18.80;99.90;;;;;;5054526;28;20208;-60
2023/05/22 04:43:26;;;;;;;3.90;3.60;;;18.80;99.90;;;;;;5053544;28;20216;-60
2023/05/22 04:45:55;;;;;;;5.20;4.37;;;18.80;99.90;;;;;;5054389;28;20633;-60
2023/05/22 04:48:21;;;;;;;7.87;4.80;;;18.80;99.90;;;;;;5054589;28;20169;-61
2023/05/22 04:50:48;;;;;;;5.93;4.27;;;18.80;99.90;;;;;;5053551;28;20180;-60
2023/05/22 04:53:13;;;;;;;7.33;4.60;;;18.80;99.90;;;;;;5052080;28;20278;-60
2023/05/22 04:55:39;;;;;;;4.03;3.63;;;18.80;99.90;;;;;;5052056;28;20170;-60
2023/05/22 04:58:05;;;;;;;5.33;3.80;;;18.90;99.90;;;;;;5051399;28;20194;-60
2023/05/22 05:00:30;;;;;;;4.03;3.67;;;18.90;99.90;;;;;;5052248;28;20157;-61
2023/05/22 05:02:59;;;;;;;7.53;4.37;;;18.90;99.90;;;;;;5051747;28;20169;-62
2023/05/22 05:05:24;;;;;;;7.27;3.73;;;18.90;99.90;;;;;;5052127;28;20240;-61
2023/05/22 05:07:50;;;;;;;4.77;3.20;;;18.90;99.90;;;;;;5053750;28;20185;-60
2023/05/22 05:10:16;;;;;;;4.00;3.57;;;18.90;99.90;;;;;;5051155;28;20173;-60
2023/05/22 05:12:42;;;;;;;4.20;3.67;;;18.90;99.90;;;;;;5051229;28;20229;-60
2023/05/22 05:15:08;;;;;;;7.17;3.80;;;18.90;99.90;;;;;;5048271;28;20213;-60
2023/05/22 05:17:34;;;;;;;5.10;4.07;;;18.90;99.90;;;;;;5045796;28;20161;-60
2023/05/22 05:20:00;;;;;;;6.30;3.60;;;19.00;99.90;;;;;;5046118;28;20495;-61
2023/05/22 05:22:25;;;;;;;7.60;3.80;;;18.90;99.90;;;;;;5050304;28;20169;-61
2023/05/22 05:24:51;;;;;;;4.30;3.63;;;19.00;99.90;;;;;;5051728;28;20173;-61
2023/05/22 05:27:16;;;;;;;5.00;3.80;;;18.90;99.90;;;;;;5051876;28;20223;-61
2023/05/22 05:29:49;;;;;;;4.73;3.53;;;19.00;99.90;;;;;;5051663;28;20180;-60
2023/05/22 05:32:14;;;;;;;4.57;3.40;;;19.00;99.90;;;;;;5050660;28;20181;-60
2023/05/22 05:34:40;;;;;;;3.90;3.50;;;19.00;99.90;;;;;;5051033;28;20215;-60
2023/05/22 05:37:06;;;;;;;4.47;3.67;;;19.00;99.90;;;;;;5051068;28;20542;-61
2023/05/22 05:39:31;;;;;;;5.67;3.67;;;19.00;99.90;;;;;;5048735;28;20170;-61
2023/05/22 05:41:57;;;;;;;3.50;3.20;;;19.10;99.90;;;;;;5047238;28;20169;-60
2023/05/22 05:44:23;;;;;;;5.43;3.30;;;19.10;99.90;;;;;;5045079;28;20170;-60
2023/05/22 05:46:48;;;;;;;4.03;3.37;;;19.10;99.90;;;;;;5042201;28;20173;-61
2023/05/22 05:49:14;;;;;;;6.03;3.10;;;19.10;99.90;;;;;;5041399;28;20215;-61
2023/05/22 05:51:42;;;;;;;4.30;2.97;;;19.10;99.90;;;;;;5040579;28;20205;-61
2023/05/22 05:54:08;;;;;;;5.63;3.60;;;19.10;99.90;;;;;;5041409;28;20208;-62
2023/05/22 05:56:33;;;;;;;4.63;3.60;;;19.20;99.90;;;;;;5043958;28;20257;-60
2023/05/22 05:58:59;;;;;;;3.70;3.40;;;19.20;99.90;;;;;;5048340;28;20169;-60
2023/05/22 06:01:25;;;;;;;3.40;3.10;;;19.20;99.90;;;;;;5046566;28;20765;-60
2023/05/22 06:03:51;;;;;;;5.10;3.53;;;19.20;99.90;;;;;;5049706;28;20752;-61
2023/05/22 06:06:17;;;;;;;4.23;3.83;;;19.20;99.90;;;;;;5046587;28;20173;-60
2023/05/22 06:08:43;;;;;;;4.47;3.73;;;19.30;99.90;;;;;;5047245;28;20263;-61
2023/05/22 06:11:09;;;;;;;5.30;3.63;;;19.30;99.90;;;;;;5045530;28;20184;-60
2023/05/22 06:13:34;;;;;;;5.70;3.40;;;19.30;99.90;;;;;;5044826;28;20198;-60
2023/05/22 06:16:00;;;;;;;7.67;3.50;;;19.30;99.90;;;;;;5043988;28;20165;-61
2023/05/22 06:18:26;;;;;;;5.00;3.40;;;19.30;99.90;;;;;;5043837;28;20221;-60
2023/05/22 06:20:52;;;;;;;4.40;3.40;;;19.40;99.90;;;;;;5041017;28;20272;-60
2023/05/22 06:23:18;;;;;;;8.17;4.03;;;19.40;99.90;;;;;;5045830;28;20256;-60
2023/05/22 06:25:43;;;;;;;3.70;2.93;;;19.40;99.90;;;;;;5047985;28;20280;-60
2023/05/22 06:28:09;;;;;;;5.97;3.37;;;19.40;99.90;;;;;;5047786;28;20177;-60
2023/05/22 06:30:35;;;;;;;5.23;3.00;;;19.40;99.90;;;;;;5048586;28;20169;-60
2023/05/22 06:33:02;;;;;;;5.67;3.07;;;19.50;99.90;;;;;;5050529;28;20859;-61
2023/05/22 06:35:29;;;;;;;3.80;3.13;;;19.50;99.90;;;;;;5051417;28;20176;-63
2023/05/22 06:37:55;;;;;;;3.30;3.00;;;19.50;99.90;;;;;;5049877;28;20239;-61
2023/05/22 06:40:21;;;;;;;6.20;3.10;;;19.50;99.90;;;;;;5049455;28;20181;-61
2023/05/22 06:42:46;;;;;;;3.77;2.93;;;19.50;99.90;;;;;;5049444;28;20166;-60
2023/05/22 06:45:12;;;;;;;3.40;3.10;;;19.50;99.90;;;;;;5046663;28;20172;-60
2023/05/22 06:47:38;;;;;;;7.33;3.40;;;19.60;99.90;;;;;;5045700;28;20165;-60
2023/05/22 06:50:04;;;;;;;5.97;3.40;;;19.60;99.90;;;;;;5042873;28;20189;-59
2023/05/22 06:52:30;;;;;;;5.83;3.30;;;19.60;99.90;;;;;;5043170;28;20256;-61
2023/05/22 06:55:03;;;;;;;4.03;3.33;;;19.60;99.90;;;;;;5044608;28;20294;-60
2023/05/22 06:57:29;;;;;;;4.33;3.30;;;19.60;99.90;;;;;;5044234;28;20177;-60
2023/05/22 06:59:55;;;;;;;3.30;2.80;;;19.70;99.90;;;;;;5043418;28;20176;-60
2023/05/22 07:02:20;;;;;;;4.80;3.73;;;19.70;99.90;;;;;;5047169;28;20165;-61
2023/05/22 07:04:46;;;;;;;5.23;3.43;;;19.70;99.90;;;;;;5046456;28;20546;-60
2023/05/22 07:07:11;;;;;;;3.93;3.30;;;19.70;99.90;;;;;;5046122;28;20170;-62
2023/05/22 07:09:37;;;;;;;6.97;3.07;;;19.80;99.90;;;;;;5047822;28;20550;-61
2023/05/22 07:12:04;;;;;;;3.13;2.80;;;19.80;99.90;;;;;;5047919;28;20165;-60
2023/05/22 07:14:30;;;;;;;4.23;3.33;;;19.80;99.90;;;;;;5049944;28;20204;-61
2023/05/22 07:16:56;;;;;;;3.20;2.90;;;19.90;99.90;;;;;;5049526;28;20170;-61
2023/05/22 07:19:21;;;;;;;5.83;3.30;;;19.90;99.90;;;;;;5046737;28;20267;-61
2023/05/22 07:21:47;;;;;;;5.20;3.57;;;19.90;99.90;;;;;;5046542;28;20261;-61
2023/05/22 07:24:12;;;;;;;6.37;2.87;;;20.00;99.90;;;;;;5047109;28;20235;-61
2023/05/22 07:26:45;;;;;;;3.13;2.83;;;20.00;99.90;;;;;;5042691;28;20271;-62
2023/05/22 07:29:11;;;;;;;3.23;2.93;;;20.00;99.90;;;;;;5041059;28;20181;-62
2023/05/22 07:31:37;;;;;;;5.47;3.13;;;20.10;99.90;;;;;;5041989;28;20561;-60
2023/05/22 07:34:03;;;;;;;3.40;2.80;;;20.10;99.90;;;;;;5042614;28;20200;-61
2023/05/22 07:36:30;;;;;;;6.37;2.80;;;20.20;99.90;;;;;;5042627;28;20161;-61
2023/05/22 07:38:56;;;;;;;4.90;2.77;;;20.20;99.90;;;;;;5041598;28;20173;-62
2023/05/22 07:41:23;;;;;;;8.07;3.83;;;20.20;99.90;;;;;;5044755;28;20176;-62
2023/05/22 07:43:49;;;;;;;4.20;2.63;;;20.30;99.90;;;;;;5044795;28;20246;-61
2023/05/22 07:46:15;;;;;;;3.63;3.30;;;20.40;99.90;;;;;;5044979;28;20247;-61
2023/05/22 07:48:40;;;;;;;4.90;3.03;;;20.50;99.90;;;;;;5044209;28;20173;-61
2023/05/22 07:51:06;;;;;;;4.63;3.37;;;20.50;99.90;;;;;;5047680;28;20259;-61
2023/05/22 07:53:32;;;;;;;2.80;2.50;;;20.60;99.90;;;;;;5048734;28;20215;-61
2023/05/22 07:55:58;;;;;;;3.63;3.10;;;20.60;99.90;;;;;;5050409;28;20177;-61
2023/05/22 07:58:24;;;;;;;4.13;3.20;;;20.70;99.90;;;;;;5049024;28;20177;-61
2023/05/22 08:00:51;;;;;;;3.37;2.90;;;20.80;99.90;;;;;;5049551;28;20219;-60
2023/05/22 08:03:16;;;;;;;11.13;3.23;;;20.80;99.90;;;;;;5049559;28;20243;-61
2023/05/22 08:05:42;;;;;;;5.57;3.10;;;20.90;99.90;;;;;;5049416;28;20174;-60
2023/05/22 08:08:09;;;;;;;3.77;3.00;;;20.90;99.90;;;;;;5046863;28;20216;-61
2023/05/22 08:10:36;;;;;;;2.73;2.43;;;20.90;99.90;;;;;;5042005;28;20184;-61
2023/05/22 08:13:05;;;;;;;3.00;2.70;;;21.00;99.90;;;;;;5043568;28;20197;-60
2023/05/22 08:15:31;;;;;;;3.07;2.57;;;20.90;99.90;;;;;;5043121;28;20248;-59
2023/05/22 08:17:56;;;;;;;4.30;2.63;;;21.00;99.90;;;;;;5043643;28;20288;-60
2023/05/22 08:20:23;;;;;;;6.87;2.83;;;21.00;99.90;;;;;;5044961;28;20330;-60
2023/05/22 08:22:49;;;;;;;5.47;2.77;;;21.00;99.90;;;;;;5047750;28;20584;-61
2023/05/22 08:25:16;;;;;;;4.47;2.43;;;21.00;99.90;;;;;;5048779;28;20161;-60
2023/05/22 08:27:41;;;;;;;4.37;2.90;;;21.10;99.90;;;;;;5047976;28;20522;-61
2023/05/22 08:30:09;;;;;;;4.10;2.70;;;21.10;99.90;;;;;;5049341;28;20557;-60
2023/05/22 08:32:35;;;;;;;2.33;2.13;;;21.10;99.90;;;;;;5047748;28;20319;-61
2023/05/22 08:35:01;;;;;;;3.07;2.40;;;21.10;99.90;;;;;;5048255;28;20189;-61
2023/05/22 08:37:31;;;;;;;6.67;2.70;;;21.10;99.90;;;;;;5045938;28;20170;-60
2023/05/22 08:39:56;;;;;;;2.60;2.17;;;21.20;99.90;;;;;;5045382;28;20181;-61
2023/05/22 08:42:22;;;;;;;3.13;2.60;;;21.30;99.90;;;;;;5043691;28;20169;-60
2023/05/22 08:44:48;;;;;;;5.80;2.73;;;21.30;99.90;;;;;;5043046;28;20182;-58
2023/05/22 08:47:15;;;;;;;4.40;2.43;;;21.30;99.90;;;;;;5043689;28;20174;-59
2023/05/22 08:49:41;;;;;;;8.73;3.20;;;21.40;99.90;;;;;;5044400;28;20179;-60
2023/05/22 08:52:20;;;;;;;5.40;2.50;;;21.40;99.90;;;;;;5045155;28;20322;-60
2023/05/22 08:54:51;;;;;;;5.20;2.60;;;21.40;99.90;;;;;;5043866;28;20593;-58
2023/05/22 08:57:18;;;;;;;5.77;3.17;;;21.50;99.90;;;;;;5045582;28;20169;-59
2023/05/22 08:59:47;;;;;;;3.80;2.40;;;21.50;99.90;;;;;;5045159;28;20302;-60
2023/05/22 09:02:15;;;;;;;4.47;2.93;;;21.50;99.90;;;;;;5044691;28;20220;-58
2023/05/22 09:04:41;;;;;;;3.87;2.70;;;21.60;99.90;;;;;;5042375;28;20215;-59
2023/05/22 09:07:07;;;;;;;2.90;2.20;;;21.60;99.90;;;;;;5043830;28;20264;-59
2023/05/22 09:09:40;;;;;;;2.87;2.43;;;21.60;99.90;;;;;;5043818;28;20177;-57
2023/05/22 09:12:10;;;;;;;3.97;3.27;;;21.70;99.90;;;;;;5024203;28;20182;-60
2023/05/22 09:14:41;;;;;;;2.73;2.50;;;21.80;99.90;;;;;;5040744;28;20224;-60
2023/05/22 09:17:08;;;;;;;3.00;2.70;;;21.90;99.90;;;;;;5044039;28;20215;-59
2023/05/22 09:19:34;;;;;;;5.07;2.70;;;21.90;99.90;;;;;;5042123;28;20240;-59
2023/05/22 09:22:05;;;;;;;10.10;3.40;;;22.10;99.90;;;;;;5041922;28;20169;-58
2023/05/22 09:24:42;;;;;;;2.73;2.43;;;22.20;99.90;;;;;;5042428;28;20166;-59
2023/05/22 09:27:08;;;;;;;5.43;2.70;;;22.20;99.90;;;;;;5044485;28;20173;-60
2023/05/22 09:29:55;;;;;;;4.47;3.03;;;22.20;99.90;;;;;;5044788;28;20177;-59
2023/05/22 09:32:21;;;;;;;5.30;2.93;;;22.30;99.90;;;;;;5030822;28;20561;-60
2023/05/22 09:34:47;;;;;;;3.63;3.33;;;22.30;99.90;;;;;;5048233;28;20238;-59
2023/05/22 09:37:16;;;;;;;3.60;2.90;;;22.50;99.90;;;;;;5048797;28;20177;-59
2023/05/22 09:39:47;;;;;;;3.90;2.40;;;22.60;99.90;;;;;;5046183;28;20174;-59
2023/05/22 09:42:16;;;;;;;4.47;3.17;;;22.60;99.90;;;;;;5046536;28;20158;-60
2023/05/22 09:44:53;;;;;;;5.27;2.77;;;22.60;99.90;;;;;;5045488;28;20173;-61
2023/05/22 09:47:19;;;;;;;4.37;2.97;;;22.70;99.90;;;;;;5044229;28;20678;-59
2023/05/22 09:49:46;;;;;;;3.93;2.67;;;22.70;99.90;;;;;;5045069;28;20790;-59
2023/05/22 09:52:16;;;;;;;3.47;2.57;;;22.70;99.90;;;;;;5045633;28;20173;-66
2023/05/22 09:54:54;;;;;;;2.77;2.50;;;22.80;99.90;;;;;;5044771;28;20577;-67
2023/05/22 09:57:23;;;;;;;2.80;2.60;;;22.70;99.90;;;;;;5043870;28;20181;-67
2023/05/22 09:59:57;;;;;;;3.10;2.60;;;22.70;99.90;;;;;;5032458;28;20176;-67
2023/05/22 10:02:25;;;;;;;2.57;2.37;;;22.70;99.90;;;;;;5032984;28;20181;-66
2023/05/22 10:04:53;;;;;;;3.63;2.57;;;22.70;99.90;;;;;;5048869;28;20170;-66
2023/05/22 10:07:36;;;;;;;2.73;2.37;;;22.70;99.90;;;;;;5029836;28;20220;-67
2023/05/22 10:10:21;;;;;;;3.43;2.70;;;22.70;99.90;;;;;;5046556;28;20205;-66
2023/05/22 10:13:02;;;;;;;3.00;2.57;;;22.70;99.90;;;;;;5047457;28;20731;-66
2023/05/22 10:15:30;;;;;;;5.97;2.73;;;22.70;99.90;;;;;;5046942;28;20487;-67
2023/05/22 10:17:58;;;;;;;3.73;2.97;;;22.70;99.90;;;;;;5046520;28;20176;-66
2023/05/22 10:20:27;;;;;;;6.30;2.63;;;22.70;99.90;;;;;;5049375;28;20172;-67
2023/05/22 10:22:55;;;;;;;3.50;2.60;;;22.80;99.90;;;;;;5048818;28;20239;-67
2023/05/22 10:25:21;;;;;;;5.10;2.83;;;22.80;99.90;;;;;;5049199;28;20170;-66
2023/05/22 10:27:51;;;;;;;6.73;2.80;;;22.80;99.90;;;;;;5048907;28;20473;-66
2023/05/22 10:30:25;;;;;;;3.77;2.70;;;22.80;99.90;;;;;;5050332;28;20199;-66
2023/05/22 10:33:10;;;;;;;5.30;2.30;;;22.90;99.90;;;;;;5049674;28;20165;-66
2023/05/22 10:36:05;;;;;;;3.30;2.90;;;22.90;99.90;;;;;;5048061;28;20570;-66
2023/05/22 10:38:46;;;;;;;3.27;2.83;;;22.90;99.90;;;;;;5045081;28;20170;-60
2023/05/22 10:41:12;;;;;;;5.90;3.07;;;23.10;99.90;;;;;;5045862;28;20597;-60
2023/05/22 10:43:43;;;;;;;4.80;3.00;;;23.30;99.90;;;;;;5044037;28;20188;-60
2023/05/22 10:46:11;;;;;;;3.40;2.53;;;23.40;99.90;;;;;;5029390;28;20188;-60
2023/05/22 10:48:57;;;;;;;3.37;2.60;;;23.60;99.90;;;;;;5046249;28;20178;-60
2023/05/22 10:51:23;;;;;;;2.70;2.50;;;23.70;99.90;;;;;;5044242;28;20184;-59
2023/05/22 10:53:59;;;;;;;4.80;3.37;;;23.90;99.90;;;;;;5043268;28;20240;-60
2023/05/22 10:56:32;;;;;;;5.60;2.70;;;23.90;99.90;;;;;;5028893;28;20266;-58
2023/05/22 10:59:01;;;;;;;3.50;2.70;;;24.10;99.90;;;;;;5047216;28;20553;-60
2023/05/22 11:01:27;;;;;;;7.07;2.90;;;24.20;99.90;;;;;;5048542;28;20243;-60
2023/05/22 11:03:59;;;;;;;2.73;2.53;;;24.20;99.90;;;;;;5047453;28;20239;-60
2023/05/22 11:07:00;;;;;;;3.97;3.10;;;24.20;99.90;;;;;;5044743;28;20174;-60
2023/05/22 11:09:33;;;;;;;2.70;2.50;;;24.30;99.90;;;;;;5044187;28;20187;-59
2023/05/22 11:12:15;;;;;;;3.43;2.60;;;24.30;99.90;;;;;;5042500;28;20193;-60
2023/05/22 11:15:07;;;;;;;5.20;2.67;;;24.30;99.90;;;;;;5040283;28;20197;-60
2023/05/22 11:17:50;;;;;;;3.20;2.57;;;24.40;99.90;;;;;;5026509;28;20173;-60
2023/05/22 11:20:23;;;;;;;2.50;2.30;;;24.40;99.90;;;;;;5040574;28;20302;-60
2023/05/22 11:22:54;;;;;;;3.30;2.63;;;24.50;99.90;;;;;;5038839;28;20239;-58
2023/05/22 11:25:22;;;;;;;13.73;3.27;;;24.50;99.90;;;;;;5036229;28;20177;-60
2023/05/22 11:27:48;;;;;;;4.63;2.83;;;24.60;99.90;;;;;;5035695;28;20181;-60
2023/05/22 11:30:16;;;;;;;3.87;2.53;;;24.70;99.90;;;;;;5018265;28;20187;-61
2023/05/22 11:32:44;;;;;;;6.93;3.10;;;24.80;99.90;;;;;;5034749;28;20569;-60
2023/05/22 11:35:21;;;;;;;5.45;3.00;;;24.90;99.90;;;;;;5031529;28;20205;-60
2023/05/22 11:37:48;;;;;;;2.67;2.45;;;25.10;99.90;;;;;;5028166;28;20173;-58
2023/05/22 11:40:16;;;;;;;2.60;2.40;;;25.10;99.90;;;;;;5016108;28;20209;-59
2023/05/22 11:42:42;;;;;;;5.28;2.60;;;25.30;99.90;;;;;;5032998;28;20205;-60
2023/05/22 11:45:09;;;;;;;4.50;2.63;;;25.40;99.90;;;;;;5034106;28;20217;-59
2023/05/22 11:47:36;;;;;;;7.15;3.30;;;25.50;99.90;;;;;;5033511;28;20178;-58
2023/05/22 11:50:03;;;;;;;4.70;2.45;;;25.60;99.90;;;;;;5032870;28;20242;-59
2023/05/22 11:52:32;;;;;;;3.67;2.80;;;25.70;99.90;;;;;;5034559;28;20326;-60
2023/05/22 11:54:59;;;;;;;6.47;2.92;;;25.80;99.90;;;;;;5034858;28;20205;-59
2023/05/22 11:57:25;;;;;;;7.75;2.85;;;25.80;99.90;;;;;;5040355;28;20180;-60
2023/05/22 11:59:52;;;;;;;7.50;2.80;;;25.70;99.90;;;;;;5038821;28;20184;-60
2023/05/22 12:02:18;;;;;;;6.88;2.92;;;25.80;99.90;;;;;;5039642;28;20200;-60
2023/05/22 12:04:44;;;;;;;5.05;2.38;;;25.80;99.90;;;;;;5022913;28;20177;-60
2023/05/22 12:07:12;;;;;;;7.40;2.65;;;25.80;99.90;;;;;;5038300;28;20177;-60
2023/05/22 12:09:38;;;;;;;3.90;2.45;;;25.90;99.90;;;;;;5040003;28;20178;-60
2023/05/22 12:12:04;;;;;;;6.97;3.00;;;26.00;99.90;;;;;;5039866;28;20192;-60
2023/05/22 12:14:31;;;;;;;3.60;2.92;;;26.20;99.90;;;;;;5040719;28;20690;-60
2023/05/22 12:17:06;;;;;;;2.72;2.28;;;26.30;99.90;;;;;;5040941;28;20205;-60
2023/05/22 12:19:38;;;;;;;3.97;3.00;;;26.40;99.90;;;;;;5039909;28;20229;-60
2023/05/22 12:22:04;;;;;;;7.15;2.83;;;26.60;99.90;;;;;;5024628;28;20761;-59
2023/05/22 12:24:40;;;;;;;7.90;3.22;;;26.80;99.90;;;;;;5025842;28;20186;-61
2023/05/22 12:27:09;;;;;;;4.93;2.65;;;26.90;99.90;;;;;;5040962;28;20238;-62
2023/05/22 12:29:37;;;;;;;3.00;2.40;;;27.00;99.90;;;;;;5043604;28;20266;-60
2023/05/22 12:32:06;;;;;;;9.55;2.78;;;27.00;99.90;;;;;;5032071;28;20257;-60
2023/05/22 12:34:34;;;;;;;4.65;2.78;;;27.10;99.90;;;;;;5025531;28;20823;-59
2023/05/22 12:37:00;;;;;;;5.15;2.75;;;27.10;99.90;;;;;;5023888;28;20185;-60
2023/05/22 12:39:28;;;;;;;6.13;2.75;;;27.20;99.40;;;;;;5043395;28;20169;-60
2023/05/22 12:41:53;;;;;;;3.72;2.60;;;27.20;97.80;;;;;;5043097;28;20761;-60
2023/05/22 12:44:19;;;;;;;5.63;3.22;;;27.30;98.10;;;;;;5042550;28;20170;-60
2023/05/22 12:46:44;;;;;;;10.23;2.75;;;27.10;95.90;;;;;;5042140;28;20169;-60
2023/05/22 12:49:10;;;;;;;5.07;2.47;;;27.20;96.80;;;;;;5043414;28;20173;-60
2023/05/22 12:51:36;;;;;;;6.03;3.17;;;27.20;95.80;;;;;;5041260;28;20749;-60